createdAt,value
2022-08-02T00:00:21.070Z,92020.31
2022-08-02T00:02:53.547Z,92011.44
2022-08-02T00:05:26.886Z,92019.66
2022-08-02T00:07:59.253Z,92018.38
2022-08-02T00:10:31.759Z,92003.16
2022-08-02T00:13:04.294Z,92010.91
2022-08-02T00:15:36.654Z,92017.38
2022-08-02T00:18:09.078Z,92008.88
2022-08-02T00:20:42.134Z,92008.09
2022-08-02T00:23:14.666Z,92008.94
2022-08-02T00:25:54.863Z,92015.56
2022-08-02T00:28:29.148Z,92021.91
2022-08-02T00:31:01.598Z,92026.28
2022-08-02T00:34:27.087Z,92019.38
2022-08-02T00:36:27.205Z,92009.06
2022-08-02T00:38:59.599Z,92013.56
2022-08-02T00:41:32.062Z,92019.38
2022-08-02T00:44:04.836Z,92013.34
2022-08-02T00:46:37.267Z,92023.97
2022-08-02T00:49:09.903Z,92012.78
2022-08-02T00:51:43.046Z,92015.28
2022-08-02T00:54:15.487Z,92021.88
2022-08-02T00:56:50.134Z,92015.66
2022-08-02T00:59:23.649Z,92020.91
2022-08-02T01:01:58.298Z,92017.25
2022-08-02T01:04:40.647Z,92010.13
2022-08-02T01:07:14.123Z,92011.00
2022-08-02T01:09:46.812Z,92006.19
2022-08-02T01:12:19.208Z,91994.34
2022-08-02T01:14:53.374Z,92009.59
2022-08-02T01:17:32.211Z,92014.97
2022-08-02T01:20:11.919Z,92010.00
2022-08-02T01:23:05.359Z,92008.78
2022-08-02T01:26:04.366Z,92003.31
2022-08-02T01:28:43.198Z,92004.94
2022-08-02T01:31:20.910Z,92002.00
2022-08-02T01:34:02.382Z,92003.84
2022-08-02T01:36:39.047Z,91994.66
2022-08-02T01:39:26.930Z,92006.56
2022-08-02T01:42:01.861Z,91992.19
2022-08-02T01:44:38.489Z,91995.84
2022-08-02T01:47:17.395Z,91993.78
2022-08-02T01:49:54.214Z,91994.09
2022-08-02T01:52:29.206Z,91992.22
2022-08-02T01:55:06.839Z,91992.38
2022-08-02T01:57:48.570Z,91996.84
2022-08-02T02:00:24.077Z,91995.31
2022-08-02T02:02:58.780Z,91995.63
2022-08-02T02:05:33.340Z,92001.06
2022-08-02T02:08:09.243Z,91992.41
2022-08-02T02:10:44.991Z,91993.06
2022-08-02T02:13:19.307Z,91990.69
2022-08-02T02:15:54.481Z,91978.16
2022-08-02T02:18:30.478Z,91988.69
2022-08-02T02:21:02.999Z,91994.63
2022-08-02T02:23:35.886Z,91995.50
2022-08-02T02:26:13.395Z,91993.50
2022-08-02T02:28:47.606Z,91987.16
2022-08-02T02:31:21.294Z,91991.66
2022-08-02T02:34:01.730Z,91993.31
2022-08-02T02:36:36.831Z,91993.63
2022-08-02T02:39:14.110Z,91983.44
2022-08-02T02:41:48.703Z,91983.59
2022-08-02T02:44:23.207Z,91990.13
2022-08-02T02:46:57.965Z,91991.75
2022-08-02T02:49:32.621Z,91992.97
2022-08-02T02:52:06.788Z,91987.84
2022-08-02T02:54:39.796Z,91996.53
2022-08-02T02:57:13.599Z,92001.34
2022-08-02T02:59:49.413Z,91993.72
2022-08-02T03:02:23.320Z,91986.94
2022-08-02T03:04:58.327Z,91987.63
2022-08-02T03:07:32.892Z,91989.94
2022-08-02T03:10:07.589Z,91984.13
2022-08-02T03:12:40.107Z,91988.34
2022-08-02T03:15:13.821Z,91985.97
2022-08-02T03:17:47.181Z,91978.75
2022-08-02T03:20:21.975Z,91985.22
2022-08-02T03:22:54.363Z,91973.81
2022-08-02T03:25:26.780Z,91981.69
2022-08-02T03:27:59.155Z,91977.72
2022-08-02T03:30:31.554Z,91985.78
2022-08-02T03:33:04.686Z,91986.28
2022-08-02T03:35:38.445Z,91978.88
2022-08-02T03:38:12.389Z,91980.66
2022-08-02T03:40:46.057Z,91980.53
2022-08-02T03:43:18.880Z,91980.47
2022-08-02T03:45:52.500Z,91985.59
2022-08-02T03:48:33.923Z,91986.34
2022-08-02T03:51:07.807Z,91985.72
2022-08-02T03:53:40.894Z,91991.66
2022-08-02T03:56:14.458Z,91985.13
2022-08-02T03:58:49.352Z,91990.91
2022-08-02T04:01:21.995Z,91993.22
2022-08-02T04:03:55.113Z,92000.44
2022-08-02T04:06:28.447Z,91999.81
2022-08-02T04:09:00.936Z,92003.66
2022-08-02T04:11:33.339Z,92004.09
2022-08-02T04:14:07.801Z,92004.09
2022-08-02T04:16:44.935Z,92007.50
2022-08-02T04:19:25.299Z,92005.75
2022-08-02T04:21:59.608Z,92007.50
2022-08-02T04:24:37.868Z,92010.69
2022-08-02T04:27:49.171Z,92014.22
2022-08-02T04:30:05.285Z,92016.25
2022-08-02T04:32:38.887Z,92018.56
2022-08-02T04:35:20.504Z,92016.72
2022-08-02T04:38:09.320Z,92013.63
2022-08-02T04:40:49.843Z,92014.34
2022-08-02T04:43:22.952Z,92017.94
2022-08-02T04:45:55.521Z,92007.88
2022-08-02T04:48:28.167Z,92014.78
2022-08-02T04:51:01.259Z,92015.56
2022-08-02T04:53:33.909Z,92012.53
2022-08-02T04:56:06.278Z,92012.94
2022-08-02T04:58:40.447Z,92005.72
2022-08-02T05:01:13.391Z,92001.50
2022-08-02T05:03:46.801Z,92011.81
2022-08-02T05:06:20.655Z,92010.19
2022-08-02T05:08:53.747Z,92014.72
2022-08-02T05:11:36.254Z,92012.66
2022-08-02T05:14:09.223Z,92017.75
2022-08-02T05:16:41.606Z,92016.78
2022-08-02T05:19:14.059Z,92016.47
2022-08-02T05:21:47.080Z,92021.44
2022-08-02T05:24:19.514Z,92028.34
2022-08-02T05:26:51.919Z,92024.97
2022-08-02T05:29:24.319Z,92021.00
2022-08-02T05:31:56.738Z,92028.47
2022-08-02T05:34:29.161Z,92034.72
2022-08-02T05:37:02.195Z,92028.41
2022-08-02T05:39:34.780Z,92030.13
2022-08-02T05:42:09.574Z,92036.81
2022-08-02T05:44:42.187Z,92032.47
2022-08-02T05:47:14.614Z,92043.91
2022-08-02T05:49:46.982Z,92039.50
2022-08-02T05:52:24.214Z,92042.31
2022-08-02T05:55:06.840Z,92044.41
2022-08-02T05:57:48.710Z,92046.13
2022-08-02T06:00:21.844Z,92052.88
2022-08-02T06:03:16.135Z,92046.09
2022-08-02T06:05:58.801Z,92046.72
2022-08-02T06:08:37.396Z,92057.38
2022-08-02T06:11:12.411Z,92061.97
2022-08-02T06:13:45.982Z,92060.09
2022-08-02T06:16:32.669Z,92071.78
2022-08-02T06:19:05.789Z,92056.63
2022-08-02T06:22:42.029Z,92073.56
2022-08-02T06:24:35.023Z,92066.72
2022-08-02T06:27:07.722Z,92070.41
2022-08-02T06:29:40.931Z,92065.66
2022-08-02T06:32:17.375Z,92068.97
2022-08-02T06:34:49.827Z,92075.56
2022-08-02T06:37:27.383Z,92067.81
2022-08-02T06:40:06.446Z,92073.56
2022-08-02T06:42:47.862Z,92069.59
2022-08-02T06:45:20.322Z,92080.88
2022-08-02T06:47:53.934Z,92079.88
2022-08-02T06:50:26.687Z,92075.06
2022-08-02T06:52:59.892Z,92070.47
2022-08-02T06:55:33.082Z,92069.88
2022-08-02T06:58:16.243Z,92069.59
2022-08-02T07:00:48.846Z,92064.31
2022-08-02T07:03:21.267Z,92068.19
2022-08-02T07:05:54.323Z,92070.91
2022-08-02T07:08:30.998Z,92072.91
2022-08-02T07:11:05.801Z,92079.75
2022-08-02T07:13:39.962Z,92072.91
2022-08-02T07:16:12.505Z,92076.00
2022-08-02T07:18:44.920Z,92076.00
2022-08-02T07:21:17.327Z,92079.44
2022-08-02T07:24:09.711Z,92079.44
2022-08-02T07:27:08.551Z,92076.41
2022-08-02T07:29:45.918Z,92065.72
2022-08-02T07:32:21.198Z,92068.72
2022-08-02T07:34:55.469Z,92070.63
2022-08-02T07:37:51.182Z,92064.59
2022-08-02T07:40:23.603Z,92066.06
2022-08-02T07:43:03.474Z,92072.50
2022-08-02T07:45:55.785Z,92062.91
2022-08-02T07:48:29.032Z,92057.44
2022-08-02T07:51:01.408Z,92065.91
2022-08-02T07:53:50.625Z,92068.88
2022-08-02T07:56:23.968Z,92063.06
2022-08-02T07:58:57.079Z,92070.09
2022-08-02T08:01:29.578Z,92067.28
2022-08-02T08:04:01.998Z,92061.56
2022-08-02T08:06:34.633Z,92061.03
2022-08-02T08:09:07.080Z,92064.28
2022-08-02T08:11:39.527Z,92061.31
2022-08-02T08:14:16.675Z,92066.56
2022-08-02T08:16:49.450Z,92068.16
2022-08-02T08:19:21.867Z,92068.97
2022-08-02T08:22:14.955Z,92061.25
2022-08-02T08:24:47.935Z,92064.75
2022-08-02T08:27:21.989Z,92054.00
2022-08-02T08:29:55.114Z,92062.16
2022-08-02T08:32:27.496Z,92061.50
2022-08-02T08:34:59.960Z,92059.78
2022-08-02T08:37:34.215Z,92059.75
2022-08-02T08:40:07.836Z,92065.56
2022-08-02T08:42:40.889Z,92065.94
2022-08-02T08:45:14.031Z,92060.25
2022-08-02T08:47:52.622Z,92058.44
2022-08-02T08:50:26.617Z,92063.00
2022-08-02T08:53:03.578Z,92063.38
2022-08-02T08:55:37.097Z,92065.59
2022-08-02T08:58:11.296Z,92067.72
2022-08-02T09:00:44.469Z,92060.75
2022-08-02T09:03:17.012Z,92064.16
2022-08-02T09:05:49.760Z,92060.06
2022-08-02T09:08:22.158Z,92060.22
2022-08-02T09:10:54.567Z,92061.88
2022-08-02T09:13:31.208Z,92067.59
2022-08-02T09:16:28.803Z,92062.69
2022-08-02T09:19:15.843Z,92063.72
2022-08-02T09:21:49.739Z,92064.38
2022-08-02T09:24:23.228Z,92069.66
2022-08-02T09:26:55.776Z,92069.13
2022-08-02T09:29:28.254Z,92068.03
2022-08-02T09:32:03.989Z,92064.50
2022-08-02T09:34:47.642Z,92058.69
2022-08-02T09:37:24.455Z,92072.91
2022-08-02T09:39:59.999Z,92059.91
2022-08-02T09:42:32.483Z,92064.16
2022-08-02T09:45:05.957Z,92056.50
2022-08-02T09:47:48.892Z,92049.31
2022-08-02T09:50:21.283Z,92052.22
2022-08-02T09:52:55.774Z,92046.25
2022-08-02T09:55:28.320Z,92039.03
2022-08-02T09:58:17.214Z,92046.84
2022-08-02T10:00:54.699Z,92049.53
2022-08-02T10:03:31.936Z,92044.00
2022-08-02T10:06:07.803Z,92042.22
2022-08-02T10:08:40.331Z,92047.16
2022-08-02T10:11:13.055Z,92047.13
2022-08-02T10:13:46.188Z,92033.22
2022-08-02T10:16:22.856Z,92046.38
2022-08-02T10:18:59.220Z,92051.50
2022-08-02T10:21:42.711Z,92038.16
2022-08-02T10:24:23.096Z,92045.63
2022-08-02T10:26:58.504Z,92038.00
2022-08-02T10:29:44.805Z,92037.34
2022-08-02T10:32:32.837Z,92034.97
2022-08-02T10:35:19.685Z,92043.72
2022-08-02T10:38:02.739Z,92039.84
2022-08-02T10:40:44.379Z,92045.31
2022-08-02T10:43:42.440Z,92033.97
2022-08-02T10:46:23.229Z,92023.81
2022-08-02T10:49:36.661Z,92028.59
2022-08-02T10:52:08.731Z,92040.53
2022-08-02T10:54:43.444Z,92031.97
2022-08-02T10:57:26.799Z,92043.91
2022-08-02T11:00:09.452Z,92028.34
2022-08-02T11:02:46.057Z,92020.66
2022-08-02T11:05:26.891Z,92023.50
2022-08-02T11:08:18.025Z,92016.38
2022-08-02T11:10:50.456Z,92021.28
2022-08-02T11:13:25.612Z,92022.31
2022-08-02T11:16:00.971Z,92023.03
2022-08-02T11:19:06.637Z,92024.75
2022-08-02T11:21:39.453Z,92025.66
2022-08-02T11:24:28.040Z,92031.56
2022-08-02T11:27:01.840Z,92030.25
2022-08-02T11:29:38.111Z,92026.09
2022-08-02T11:32:19.543Z,92028.97
2022-08-02T11:34:53.947Z,92022.06
2022-08-02T11:37:29.194Z,92027.19
2022-08-02T11:40:03.719Z,92023.63
2022-08-02T11:42:39.169Z,92025.59
2022-08-02T11:45:12.709Z,92025.75
2022-08-02T11:47:54.702Z,92022.94
2022-08-02T11:50:30.392Z,92024.81
2022-08-02T11:53:12.919Z,92019.16
2022-08-02T11:55:45.967Z,92021.72
2022-08-02T11:58:18.404Z,92011.78
2022-08-02T12:00:53.068Z,92011.28
2022-08-02T12:03:25.668Z,92013.34
2022-08-02T12:06:05.866Z,92016.13
2022-08-02T12:08:39.450Z,92018.94
2022-08-02T12:11:12.506Z,92017.00
2022-08-02T12:13:45.430Z,92015.22
2022-08-02T12:16:52.839Z,92000.16
2022-08-02T12:19:27.076Z,92006.03
2022-08-02T12:22:12.265Z,92011.34
2022-08-02T12:24:47.781Z,92013.44
2022-08-02T12:27:31.823Z,92020.06
2022-08-02T12:30:07.336Z,92018.38
2022-08-02T12:32:40.190Z,92017.72
2022-08-02T12:35:26.134Z,92023.09
2022-08-02T12:38:09.315Z,92019.66
2022-08-02T12:40:41.856Z,92028.41
2022-08-02T12:43:20.231Z,92028.97
2022-08-02T12:45:54.144Z,92016.59
2022-08-02T12:48:38.596Z,92015.13
2022-08-02T12:51:20.082Z,92008.56
2022-08-02T12:53:59.928Z,92008.19
2022-08-02T12:56:36.944Z,92013.22
2022-08-02T12:59:11.462Z,92009.75
2022-08-02T13:01:45.055Z,91999.59
2022-08-02T13:04:17.498Z,92007.78
2022-08-02T13:06:49.872Z,92005.53
2022-08-02T13:09:27.178Z,92001.03
2022-08-02T13:12:01.595Z,91997.09
2022-08-02T13:14:40.369Z,91994.56
2022-08-02T13:17:14.787Z,92001.88
2022-08-02T13:19:47.208Z,92001.66
2022-08-02T13:22:24.327Z,92008.13
2022-08-02T13:25:01.494Z,92003.31
2022-08-02T13:27:34.698Z,92005.31
2022-08-02T13:30:08.731Z,92003.03
2022-08-02T13:32:41.179Z,91997.25
2022-08-02T13:35:18.201Z,92004.75
2022-08-02T13:37:50.777Z,92003.94
2022-08-02T13:40:23.466Z,92009.63
2022-08-02T13:42:56.947Z,92010.63
2022-08-02T13:45:30.007Z,92011.19
2022-08-02T13:48:03.742Z,92010.63
2022-08-02T13:50:37.935Z,92006.44
2022-08-02T13:53:10.343Z,92011.06
2022-08-02T13:55:43.421Z,92005.44
2022-08-02T13:58:16.119Z,92011.78
2022-08-02T14:00:49.158Z,92010.47
2022-08-02T14:03:21.594Z,92007.13
2022-08-02T14:05:58.810Z,92002.84
2022-08-02T14:08:31.233Z,92013.09
2022-08-02T14:11:04.148Z,92010.75
2022-08-02T14:13:36.572Z,92010.59
2022-08-02T14:16:10.111Z,92007.97
2022-08-02T14:18:42.569Z,92019.41
2022-08-02T14:21:15.287Z,92010.16
2022-08-02T14:23:50.804Z,92014.88
2022-08-02T14:26:27.327Z,92017.03
2022-08-02T14:29:00.430Z,92009.41
2022-08-02T14:31:33.551Z,92009.75
2022-08-02T14:34:06.035Z,92010.34
2022-08-02T14:36:38.424Z,92015.69
2022-08-02T14:39:11.351Z,92006.44
2022-08-02T14:42:00.038Z,92012.88
2022-08-02T14:44:33.319Z,91998.19
2022-08-02T14:47:06.507Z,92007.47
2022-08-02T14:49:41.838Z,92004.88
2022-08-02T14:52:16.363Z,92004.47
2022-08-02T14:54:48.892Z,91999.97
2022-08-02T14:57:21.465Z,91999.13
2022-08-02T14:59:59.800Z,91991.44
2022-08-02T15:02:33.198Z,91991.06
2022-08-02T15:05:05.972Z,91993.38
2022-08-02T15:07:43.333Z,91998.34
2022-08-02T15:10:18.987Z,91995.56
2022-08-02T15:12:51.463Z,91999.47
2022-08-02T15:15:25.418Z,91999.09
2022-08-02T15:17:58.530Z,92001.75
2022-08-02T15:20:34.076Z,92006.69
2022-08-02T15:23:07.361Z,92013.94
2022-08-02T15:25:41.950Z,92014.66
2022-08-02T15:28:14.361Z,92024.06
2022-08-02T15:30:46.758Z,92022.50
2022-08-02T15:33:19.754Z,92013.31
2022-08-02T15:35:52.191Z,92018.78
2022-08-02T15:38:24.599Z,92019.50
2022-08-02T15:40:57.025Z,92022.63
2022-08-02T15:43:29.691Z,92020.69
2022-08-02T15:46:02.083Z,92021.56
2022-08-02T15:48:35.389Z,92017.78
2022-08-02T15:51:07.808Z,92020.19
2022-08-02T15:53:40.209Z,92019.47
2022-08-02T15:56:13.091Z,92024.88
2022-08-02T15:58:45.650Z,92025.72
2022-08-02T16:01:24.514Z,92031.94
2022-08-02T16:03:57.640Z,92022.81
2022-08-02T16:06:30.177Z,92025.09
2022-08-02T16:09:03.413Z,92033.19
2022-08-02T16:11:35.944Z,92032.88
2022-08-02T16:14:08.872Z,92029.09
2022-08-02T16:16:41.279Z,92032.91
2022-08-02T16:19:47.159Z,92028.78
2022-08-02T16:22:07.303Z,92032.25
2022-08-02T16:24:43.378Z,92036.13
2022-08-02T16:27:15.863Z,92033.53
2022-08-02T16:29:48.277Z,92032.88
2022-08-02T16:32:20.634Z,92041.38
2022-08-02T16:35:07.722Z,92038.03
2022-08-02T16:37:51.781Z,92040.41
2022-08-02T16:40:25.315Z,92046.22
2022-08-02T16:42:57.724Z,92041.72
2022-08-02T16:45:32.682Z,92047.09
2022-08-02T16:48:07.067Z,92047.56
2022-08-02T16:50:42.346Z,92050.28
2022-08-02T16:53:36.543Z,92051.47
2022-08-02T16:56:09.995Z,92053.47
2022-08-02T16:58:44.868Z,92058.41
2022-08-02T17:01:17.838Z,92053.88
2022-08-02T17:03:57.946Z,92058.84
2022-08-02T17:06:31.196Z,92063.88
2022-08-02T17:09:03.743Z,92063.53
2022-08-02T17:11:41.447Z,92075.00
2022-08-02T17:14:18.118Z,92078.09
2022-08-02T17:16:52.703Z,92075.06
2022-08-02T17:19:25.050Z,92073.97
2022-08-02T17:21:58.181Z,92073.22
2022-08-02T17:24:30.552Z,92076.69
2022-08-02T17:27:03.902Z,92070.19
2022-08-02T17:29:37.703Z,92077.06
2022-08-02T17:32:14.921Z,92072.91
2022-08-02T17:34:59.662Z,92080.16
2022-08-02T17:37:33.415Z,92084.38
2022-08-02T17:40:08.719Z,92087.41
2022-08-02T17:42:42.040Z,92090.47
2022-08-02T17:45:16.431Z,92094.66
2022-08-02T17:48:03.839Z,92095.44
2022-08-02T17:50:37.591Z,92096.56
2022-08-02T17:53:11.464Z,92098.88
2022-08-02T17:55:45.071Z,92098.50
2022-08-02T17:58:23.535Z,92099.25
2022-08-02T18:01:08.903Z,92113.31
2022-08-02T18:03:56.695Z,92105.69
2022-08-02T18:06:30.512Z,92108.72
2022-08-02T18:09:04.096Z,92108.31
2022-08-02T18:11:52.055Z,92114.38
2022-08-02T18:14:26.420Z,92120.44
2022-08-02T18:16:59.163Z,92117.31
2022-08-02T18:19:33.060Z,92122.97
2022-08-02T18:22:15.734Z,92128.63
2022-08-02T18:24:49.015Z,92125.16
2022-08-02T18:27:22.530Z,92134.22
2022-08-02T18:30:00.188Z,92125.81
2022-08-02T18:33:54.249Z,92131.06
2022-08-02T18:35:29.608Z,92133.31
2022-08-02T18:38:03.537Z,92137.78
2022-08-02T18:40:37.044Z,92140.34
2022-08-02T18:43:09.563Z,92139.88
2022-08-02T18:46:06.489Z,92138.66
2022-08-02T18:48:44.169Z,92148.00
2022-08-02T18:51:19.571Z,92154.78
2022-08-02T18:53:53.222Z,92147.88
2022-08-02T18:56:26.314Z,92155.34
2022-08-02T18:59:04.803Z,92152.94
2022-08-02T19:01:48.590Z,92153.63
2022-08-02T19:04:27.524Z,92161.09
2022-08-02T19:07:07.001Z,92162.53
2022-08-02T19:09:40.635Z,92161.22
2022-08-02T19:12:15.938Z,92137.06
2022-08-02T19:15:00.916Z,92166.41
2022-08-02T19:17:53.745Z,92166.34
2022-08-02T19:20:26.700Z,92145.72
2022-08-02T19:23:04.765Z,92164.34
2022-08-02T19:25:38.975Z,92167.69
2022-08-02T19:28:12.123Z,92167.22
2022-08-02T19:30:44.495Z,92171.38
2022-08-02T19:33:54.496Z,92168.22
2022-08-02T19:36:09.439Z,92167.75
2022-08-02T19:38:44.911Z,92168.38
2022-08-02T19:41:17.641Z,92156.59
2022-08-02T19:44:24.371Z,92166.31
2022-08-02T19:46:48.954Z,92166.47
2022-08-02T19:52:21.055Z,92162.16
2022-08-02T19:54:57.893Z,92162.53
2022-08-02T19:57:34.636Z,92163.69
2022-08-02T20:00:10.589Z,92163.13
2022-08-02T20:02:48.695Z,92158.81
2022-08-02T20:05:24.197Z,92160.88
2022-08-02T20:07:59.665Z,92167.13
2022-08-02T20:10:33.035Z,92165.50
2022-08-02T20:13:06.208Z,92165.00
2022-08-02T20:15:55.884Z,92164.72
2022-08-02T20:18:31.096Z,92163.69
2022-08-02T20:21:03.637Z,92162.50
2022-08-02T20:23:36.044Z,92160.97
2022-08-02T20:26:09.007Z,92162.78
2022-08-02T20:28:41.576Z,92171.84
2022-08-02T20:31:14.727Z,92170.72
2022-08-02T20:33:55.664Z,92172.28
2022-08-02T20:36:28.808Z,92171.84
2022-08-02T20:39:01.212Z,92167.34
2022-08-02T20:41:36.443Z,92171.66
2022-08-02T20:44:30.612Z,92176.75
2022-08-02T20:47:04.668Z,92172.28
2022-08-02T20:49:57.963Z,92161.19
2022-08-02T20:52:30.727Z,92170.34
2022-08-02T20:55:03.296Z,92171.81
2022-08-02T20:57:48.810Z,92175.91
2022-08-02T21:00:28.073Z,92183.06
2022-08-02T21:03:02.713Z,92181.38
2022-08-02T21:05:43.691Z,92182.41
2022-08-02T21:08:27.939Z,92186.09
2022-08-02T21:11:00.651Z,92183.53
2022-08-02T21:13:46.486Z,92186.97
2022-08-02T21:16:22.041Z,92183.91
2022-08-02T21:18:59.949Z,92187.28
2022-08-02T21:21:32.941Z,92186.41
2022-08-02T21:24:05.618Z,92184.50
2022-08-02T21:26:38.020Z,92188.84
2022-08-02T21:29:10.442Z,92191.56
2022-08-02T21:31:46.114Z,92188.94
2022-08-02T21:34:27.265Z,92191.84
2022-08-02T21:37:00.143Z,92184.53
2022-08-02T21:39:42.281Z,92192.03
2022-08-02T21:42:23.592Z,92186.13
2022-08-02T21:44:56.137Z,92186.22
2022-08-02T21:47:30.957Z,92183.25
2022-08-02T21:50:13.294Z,92190.72
2022-08-02T21:52:51.091Z,92180.75
2022-08-02T21:56:00.991Z,92183.38
2022-08-02T21:58:20.014Z,92178.13
2022-08-02T22:00:52.567Z,92180.09
2022-08-02T22:03:24.959Z,92183.50
2022-08-02T22:06:02.709Z,92186.03
2022-08-02T22:08:37.076Z,92186.38
2022-08-02T22:11:13.467Z,92185.09
2022-08-02T22:13:49.811Z,92186.34
2022-08-02T22:16:22.498Z,92188.78
2022-08-02T22:18:56.175Z,92190.69
2022-08-02T22:21:33.582Z,92188.28
2022-08-02T22:24:29.612Z,92176.94
2022-08-02T22:27:02.801Z,92179.16
2022-08-02T22:29:35.163Z,92184.13
2022-08-02T22:32:08.090Z,92186.56
2022-08-02T22:34:51.614Z,92176.75
2022-08-02T22:40:18.062Z,92177.16
2022-08-02T22:42:50.435Z,92170.94
2022-08-02T22:45:22.812Z,92167.13
2022-08-02T22:47:55.263Z,92168.09
2022-08-02T22:50:28.183Z,92175.72
2022-08-02T22:53:03.094Z,92176.47
2022-08-02T22:55:35.691Z,92166.84
2022-08-02T22:58:14.864Z,92169.25
2022-08-02T22:59:05.572Z,92160.28
2022-08-02T23:00:51.945Z,92167.72
2022-08-02T23:03:24.414Z,92167.97
2022-08-02T23:05:56.856Z,92178.19
2022-08-02T23:08:31.728Z,92177.31
2022-08-02T23:11:04.119Z,92171.25
2022-08-02T23:13:36.535Z,92172.59
2022-08-02T23:16:26.927Z,92167.00
2022-08-02T23:19:17.514Z,92172.81
2022-08-02T23:22:01.612Z,92178.56
2022-08-02T23:24:36.276Z,92178.78
2022-08-02T23:27:08.717Z,92174.50
2022-08-02T23:29:41.460Z,92180.44
2022-08-02T23:32:14.181Z,92170.53
2022-08-02T23:34:46.859Z,92174.50
2022-08-02T23:37:19.213Z,92180.97
2022-08-02T23:39:52.831Z,92171.22
2022-08-02T23:42:25.270Z,92177.50
2022-08-02T23:44:57.779Z,92177.72
2022-08-02T23:47:30.642Z,92179.66
2022-08-02T23:50:03.118Z,92180.44
2022-08-02T23:52:35.539Z,92183.72
2022-08-02T23:55:09.367Z,92178.47
2022-08-02T23:57:41.800Z,92181.31
